Naples, FL (34119)

10:19 PM EDT on September 25, 2016 (GMT -0400)
Heritage Greens | | Change Station

Elev 30 ft 26.26 °N, 81.71 °W | Updated 16 minutes ago

Scattered Clouds
Scattered Clouds
76.4 °F
Feels Like 77 °F
N
0.0
Wind Variable Wind from ENE

Today
High -- | Low -- °F
--% Chance of Precip.
Yesterday
High -- | Low -- °F
Precip. -- in
Pressure 30.01 in
Visibility 10.0 miles
Clouds Scattered Clouds 4200 ft
Heat Index 77 °F
Dew Point 74 °F
Humidity 93%
Rainfall 0.30 in
Snow Depth Not available.
7:16 AM 7:19 PM
Waning Crescent, 23% visible
METAR KAPF 260153Z 06004KT 10SM SCT042 26/24 A3001 RMK AO2 SLP162 T02610239
Pressure 30.01 in
Visibility 10.0 miles
Clouds Scattered Clouds 4200 ft
Heat Index 77 °F
Dew Point 74 °F
Humidity 93%
Rainfall 0.30 in
Snow Depth Not available.
7:16 AM 7:19 PM
Waning Crescent, 23% visible
METAR KAPF 260153Z 06004KT 10SM SCT042 26/24 A3001 RMK AO2 SLP162 T02610239

10-Day Weather Forecast

Almanac

Astronomy

Sep. 25, 2016 Rise Set
Actual Time
Civil Twilight
Nautical Twilight
Astronomical Twilight
Moon
Length of Visible Light
Length of Day
Tomorrow will be .
, % of the Moon is Illuminated

Today's Extremes

State Highs State Lows

Community

WunderPhotos

Upload Photos

1,941,811 photos uploaded!

WunderBlog® & News

Nearby

Air Quality

  Air Quality AQ Index Pollutant
Not available.

Snow Depth

Station Depth Elevation

Earthquake Activity

City Distance Mag. Time & Date
Minimum magnitude displayed is 2.5.

Coastal Water Temperatures

Place Temperature

Stations

Nearby Weather Stations

Station Location Temp. Windchill Dew Point Humidity Wind Precip. Elev Updated Type
                   

Watches & Warnings

There are currently no watches in effect.